Data for 01/25/2017

Time Sea-Level Adjusted Pressure Absolute Pressure Temperature Relative Humidity Dew Point   
(mb) (inHg) (mb) (inHg) (C) (F) (%) (C) (F)
00:05 1016 30 846 24.98 -9.5 15 74 -13.4 8
00:10 1017 30.03 846 24.98 -9.4 15 73 -13.4 7.9
00:15 1017 30.03 846 24.98 -9.5 15 73 -13.4 8
00:20 1017 30.03 846 24.98 -9.5 14.9 73 -13.4 7.8
00:25 1017 30.03 846 24.98 -9.7 14.6 74 -13.5 7.8
00:30 1017 30.03 846 24.98 -9.5 14.9 73 -13.5 7.6
00:35 1017 30.03 846 24.98 -9.6 14.7 74 -13.4 7.9
00:40 1017 30.03 846 24.98 -9.8 14.5 75 -13.5 7.8
00:45 1017 30.03 846 24.98 -9.6 14.7 74 -13.5 7.7
00:50 1017 30.03 846 24.98 -9.4 15.1 73 -13.3 8.1
00:55 1017 30.03 846 24.98 -9.2 15.4 73 -13.3 8.1
01:00 1017 30.03 846 24.98 -9.1 15.5 73 -13.2 8.2
01:05 1016 30 846 24.98 -9.2 15.5 73 -13.1 8.4
01:10 1017 30.03 846 24.98 -9.1 15.7 72 -13.2 8.3
01:15 1017 30.03 846 24.98 -9 15.9 72 -13.2 8.3
01:20 1017 30.03 846 24.98 -8.8 16.2 71 -13.2 8.3
01:25 1017 30.03 846 24.98 -8.7 16.4 71 -13.1 8.5
01:30 1017 30.03 846 24.98 -8.6 16.5 71 -13 8.7
01:35 1017 30.03 846 24.98 -8.5 16.7 70 -13 8.6
01:40 1017 30.03 846 24.98 -8.6 16.4 70 -13.2 8.3
01:45 1017 30.03 846 24.98 -8.7 16.3 70 -13.2 8.2
01:50 1017 30.03 846 24.98 -8.8 16.2 70 -13.2 8.2
01:55 1017 30.03 846 24.98 -8.7 16.3 70 -13.2 8.3
02:00 1017 30.03 846 24.98 -8.5 16.6 70 -13.1 8.4
02:05 1017 30.03 846 24.98 -8.6 16.5 70 -13.1 8.4
02:10 1017 30.03 846 24.98 -8.5 16.7 68 -13.4 7.9
02:15 1017 30.03 846 24.98 -8.3 17.1 70 -12.8 8.9
02:20 1017 30.03 846 24.98 -8.7 16.3 72 -12.9 8.8
02:25 1017 30.03 846 24.98 -9 15.8 74 -12.8 8.9
02:30 1017 30.03 846 24.98 -8.9 15.9 74 -12.8 9
02:35 1017 30.03 846 24.98 -8.9 15.9 74 -12.7 9.2
02:40 1017 30.03 846 24.98 -8.9 16 75 -12.7 9.2
02:45 1017 30.03 846 24.98 -9 15.8 75 -12.6 9.4
02:50 1017 30.03 846 24.98 -8.9 16 76 -12.5 9.5
02:55 1017 30.03 846 24.98 -8.7 16.3 75 -12.3 9.8
03:00 1017 30.03 846 24.98 -8.9 16.1 76 -12.4 9.7
03:05 1017 30.03 846 24.98 -8.9 16.1 75 -12.6 9.4
03:10 1017 30.03 846 24.98 -8.8 16.3 74 -12.6 9.2
03:15 1017 30.03 846 24.98 -8.9 16 75 -12.5 9.4
03:20 1017 30.03 846 24.98 -9 15.8 74 -12.8 8.9
03:25 1017 30.03 846 24.98 -8.8 16.2 72 -13 8.7
03:30 1017 30.03 846 24.98 -8.8 16.2 72 -12.9 8.7
03:35 1017 30.03 846 24.98 -8.9 16 74 -12.8 9
03:40 1017 30.03 846 24.98 -8.9 16 75 -12.5 9.5
03:45 1017 30.03 846 24.98 -9 15.9 76 -12.5 9.6
03:50 1017 30.03 846 24.98 -9.2 15.4 76 -12.7 9.2
03:55 1017 30.03 846 24.98 -9.1 15.6 72 -13.2 8.2
04:00 1017 30.03 846 24.98 -8.7 16.3 74 -12.7 9.2
04:05 1017 30.03 846 24.98 -9.1 15.6 75 -12.8 9
04:10 1017 30.03 846 24.98 -9.3 15.2 75 -13 8.7
04:15 1017 30.03 846 24.98 -9 15.8 75 -12.7 9.1
04:20 1017 30.03 846 24.98 -9.5 15 76 -13 8.6
04:25 1017 30.03 846 24.98 -9.2 15.4 73 -13.3 8.1
04:30 1017 30.03 846 24.98 -9 15.8 73 -12.9 8.7
04:35 1017 30.03 846 24.98 -9.2 15.4 73 -13.1 8.3
04:40 1017 30.03 846 24.98 -9.3 15.3 74 -13.2 8.3
04:45 1017 30.03 846 24.98 -9.3 15.3 73 -13.3 8.1
04:50 1017 30.03 846 24.98 -9.1 15.7 71 -13.5 7.7
04:55 1017 30.03 846 24.98 -8.8 16.1 70 -13.3 8
05:00 1017 30.03 846 24.98 -8.6 16.6 69 -13.3 8.1
05:05 1017 30.03 846 24.98 -8.5 16.7 70 -13.1 8.4
05:10 1017 30.03 846 24.98 -8.6 16.6 72 -12.8 9
05:15 1017 30.03 846 24.98 -8.8 16.2 71 -13.1 8.4
05:20 1017 30.03 846 24.98 -8.8 16.2 71 -13.2 8.2
05:25 1017 30.03 846 24.98 -8.7 16.3 70 -13.2 8.3
05:30 1017 30.03 846 24.98 -8.5 16.7 69 -13.3 8.1
05:35 1017 30.03 846 24.98 -8.5 16.6 73 -12.6 9.3
05:40 1017 30.03 846 24.98 -9 15.8 73 -13.1 8.5
05:45 1017 30.03 846 24.98 -8.8 16.2 71 -13 8.5
05:50 1017 30.03 846 24.98 -9 15.9 74 -12.8 8.9
05:55 1017 30.03 846 24.98 -9.2 15.5 72 -13.3 8
06:00 1017 30.03 846 24.98 -9.1 15.6 72 -13.2 8.3
06:05 1017 30.03 846 24.98 -9.3 15.3 75 -13 8.6
06:10 1017 30.03 846 24.98 -9.3 15.2 72 -13.4 7.9
06:15 1017 30.03 846 24.98 -8.8 16.2 69 -13.4 7.9
06:20 1017 30.03 846 24.98 -8.8 16.2 71 -13.1 8.5
06:25 1017 30.03 847 25.01 -8.8 16.2 68 -13.6 7.5
06:30 1017 30.03 847 25.01 -8.4 16.8 67 -13.6 7.6
06:35 1017 30.03 846 24.98 -8.4 16.9 67 -13.4 7.9
06:40 1017 30.03 847 25.01 -8.6 16.5 71 -13 8.6
06:45 1017 30.03 847 25.01 -9 15.9 73 -13 8.5
06:50 1017 30.03 847 25.01 -8.9 16.1 69 -13.5 7.7
06:55 1017 30.03 847 25.01 -8.5 16.7 67 -13.6 7.6
07:00 1017 30.03 847 25.01 -8.3 17 66 -13.6 7.6
07:05 1017 30.03 847 25.01 -8.3 17.2 68 -13.2 8.2
07:10 1018 30.06 847 25.01 -8.6 16.4 71 -13 8.6
07:15 1018 30.06 847 25.01 -8.9 15.9 71 -13.2 8.2
07:20 1018 30.06 847 25.01 -9 15.9 69 -13.6 7.5
07:25 1018 30.06 847 25.01 -8.8 16.2 69 -13.4 7.9
07:30 1018 30.06 847 25.01 -8.8 16.2 69 -13.4 7.8
07:35 1018 30.06 847 25.01 -8.9 15.9 72 -13.2 8.3
07:40 1018 30.06 847 25.01 -9.1 15.6 72 -13.3 8.1
07:45 1018 30.06 847 25.01 -9.1 15.7 72 -13.2 8.2
07:50 1018 30.06 847 25.01 -9 15.7 70 -13.5 7.7
07:55 1018 30.06 847 25.01 -8.9 16 71 -13.3 8.1
08:00 1018 30.06 847 25.01 -9 15.8 71 -13.3 8.1
08:05 1018 30.06 847 25.01 -9.1 15.7 72 -13.3 8
08:10 1018 30.06 847 25.01 -9 15.7 71 -13.4 7.8
08:15 1018 30.06 847 25.01 -9 15.9 71 -13.4 7.9
08:20 1018 30.06 847 25.01 -9 15.9 71 -13.3 8
08:25 1018 30.06 847 25.01 -8.9 15.9 71 -13.4 7.9
08:30 1018 30.06 847 25.01 -8.9 15.9 70 -13.4 7.8
08:35 1018 30.06 847 25.01 -8.9 16 70 -13.3 8
08:40 1018 30.06 847 25.01 -8.9 15.9 71 -13.4 8
08:45 1018 30.06 847 25.01 -9 15.9 71 -13.3 8.1
08:50 1018 30.06 847 25.01 -9 15.9 72 -13.2 8.3
08:55 1018 30.06 847 25.01 -9 15.9 71 -13.3 8
09:00 1018 30.06 847 25.01 -8.9 16 71 -13.3 8.1
09:05 1018 30.06 847 25.01 -9 15.9 71 -13.3 8.1
09:10 1018 30.06 847 25.01 -9 15.8 71 -13.4 7.8
09:15 1018 30.06 847 25.01 -9 15.8 71 -13.4 7.9
09:20 1018 30.06 847 25.01 -8.9 15.9 70 -13.4 7.9
09:25 1018 30.06 847 25.01 -8.8 16.1 70 -13.4 7.9
09:30 1018 30.06 847 25.01 -8.7 16.4 68 -13.6 7.4
09:35 1018 30.06 847 25.01 -8.5 16.6 67 -13.7 7.4
09:40 1018 30.06 847 25.01 -8.4 16.9 66 -13.6 7.5
09:45 1018 30.06 848 25.04 -8.3 17.2 66 -13.5 7.7
09:50 1018 30.06 848 25.04 -8.1 17.4 66 -13.5 7.8
09:55 1018 30.06 848 25.04 -7.9 17.7 66 -13.3 8.1
10:00 1018 30.06 848 25.04 -7.8 18 65 -13.2 8.3
10:05 1018 30.06 848 25.04 -7.7 18.1 65 -13.2 8.2
10:10 1019 30.09 848 25.04 -7.5 18.5 64 -13.2 8.3
10:15 1019 30.09 848 25.04 -7.3 19 63 -13.1 8.5
10:20 1019 30.09 848 25.04 -7.3 18.8 63 -13.2 8.2
10:25 1019 30.09 848 25.04 -7.4 18.6 65 -12.9 8.7
10:30 1019 30.09 848 25.04 -7.5 18.5 65 -13 8.7
10:35 1019 30.09 848 25.04 -7.5 18.4 65 -13 8.6
10:40 1019 30.09 848 25.04 -7.5 18.6 64 -13.1 8.4
10:45 1019 30.09 848 25.04 -7.1 19.2 62 -13.2 8.3
10:50 1019 30.09 848 25.04 -6.8 19.7 62 -12.8 8.9
10:55 1019 30.09 848 25.04 -6.6 20.2 63 -12.5 9.5
11:00 1019 30.09 848 25.04 -6.4 20.5 63 -12.4 9.7
11:05 1019 30.09 848 25.04 -6.3 20.7 59 -13 8.7
11:10 1019 30.09 848 25.04 -6.4 20.5 59 -13.1 8.3
11:15 1019 30.09 848 25.04 -6.4 20.6 58 -13.3 8.1
11:20 1019 30.09 848 25.04 -6 21.1 59 -12.8 8.9
11:25 1019 30.09 848 25.04 -5.8 21.6 56 -13.1 8.3
11:30 1019 30.09 848 25.04 -5.5 22 55 -13.3 8.1
11:35 1019 30.09 848 25.04 -5.2 22.6 54 -13.3 8.1
11:40 1019 30.09 848 25.04 -5.3 22.5 53 -13.4 7.8
11:45 1019 30.09 848 25.04 -5.1 22.8 54 -13.2 8.3
11:50 1019 30.09 848 25.04 -4.8 23.3 53 -13.1 8.4
11:55 1019 30.09 848 25.04 -4.8 23.4 52 -13.3 8.1
12:00 1019 30.09 848 25.04 -4.6 23.7 52 -13.1 8.4
12:05 1019 30.09 848 25.04 -4.7 23.6 51 -13.4 7.9
12:10 1019 30.09 848 25.04 -4.5 23.9 50 -13.5 7.7
12:15 1019 30.09 848 25.04 -4.3 24.2 52 -12.8 9
12:20 1019 30.09 848 25.04 -4.2 24.5 51 -12.8 9
12:25 1019 30.09 848 25.04 -3.8 25.2 49 -13.1 8.4
12:30 1019 30.09 848 25.04 -4 24.7 52 -12.6 9.3
12:35 1019 30.09 848 25.04 -4.1 24.6 52 -12.5 9.5
12:40 1019 30.09 848 25.04 -3.8 25.2 52 -12.3 9.8
12:45 1019 30.09 848 25.04 -3.8 25.2 52 -12.2 10
12:50 1019 30.09 848 25.04 -4.1 24.7 52 -12.6 9.4
12:55 1019 30.09 848 25.04 -4 24.9 52 -12.4 9.6
13:00 1019 30.09 848 25.04 -3.8 25.1 51 -12.4 9.6
13:05 1019 30.09 848 25.04 -3.8 25.1 53 -12.2 10
13:10 1019 30.09 848 25.04 -3.3 26 51 -12.1 10.3
13:15 1019 30.09 848 25.04 -2.5 27.5 47 -12.3 9.9
13:20 1019 30.09 848 25.04 -2.3 27.9 48 -11.8 10.7
13:25 1019 30.09 848 25.04 -2.5 27.4 49 -11.8 10.8
13:30 1019 30.09 848 25.04 -3.1 26.4 51 -11.9 10.5
13:35 1019 30.09 848 25.04 -2.6 27.3 48 -12.1 10.3
13:40 1019 30.09 848 25.04 -2.3 27.8 49 -11.7 10.9
13:45 1019 30.09 848 25.04 -2.6 27.4 48 -12.1 10.3
13:50 1019 30.09 848 25.04 -2.7 27.2 50 -11.8 10.7
13:55 1019 30.09 848 25.04 -2.2 28.1 47 -12 10.3
14:00 1019 30.09 848 25.04 -1.7 28.9 46 -11.8 10.8
14:05 1019 30.09 848 25.04 -1.3 29.6 45 -11.9 10.6
14:10 1019 30.09 848 25.04 -1.4 29.4 44 -12.2 10.1
14:15 1019 30.09 848 25.04 -1.4 29.5 45 -12 10.4
14:20 1019 30.09 848 25.04 -1.3 29.6 45 -11.9 10.6
14:25 1019 30.09 848 25.04 -1.3 29.7 45 -11.7 11
14:30 1019 30.09 848 25.04 -1.4 29.4 47 -11.4 11.4
14:35 1019 30.09 848 25.04 -1.9 28.6 49 -11.1 11.9
14:40 1019 30.09 848 25.04 -2 28.4 49 -11.2 11.8
14:45 1019 30.09 848 25.04 -1.8 28.8 48 -11.5 11.4
14:50 1019 30.09 848 25.04 -1.7 28.9 47 -11.6 11.1
14:55 1019 30.09 848 25.04 -2 28.5 49 -11.3 11.7
15:00 1019 30.09 848 25.04 -2.6 27.3 49 -11.8 10.8
15:05 1018 30.06 848 25.04 -2.4 27.6 48 -12.1 10.2
15:10 1018 30.06 848 25.04 -2.5 27.5 50 -11.5 11.2
15:15 1019 30.09 848 25.04 -3.2 26.2 51 -12 10.4
15:20 1019 30.09 848 25.04 -2.8 26.9 50 -11.8 10.7
15:25 1019 30.09 848 25.04 -2.7 27.2 49 -12 10.4
15:30 1019 30.09 848 25.04 -2.7 27.2 49 -12.1 10.2
15:35 1019 30.09 848 25.04 -2.7 27.2 49 -12.1 10.3
15:40 1019 30.09 848 25.04 -3.6 25.6 52 -12.1 10.2
15:45 1019 30.09 848 25.04 -3.5 25.7 51 -12.2 10
15:50 1019 30.09 848 25.04 -3.5 25.7 51 -12.3 9.9
15:55 1019 30.09 848 25.04 -3.6 25.5 52 -12.1 10.2
16:00 1019 30.09 848 25.04 -3.1 26.4 49 -12.3 9.8
16:05 1019 30.09 848 25.04 -3.3 26 50 -12.4 9.7
16:10 1019 30.09 848 25.04 -3.2 26.2 48 -12.6 9.3
16:15 1019 30.09 848 25.04 -2.1 28.3 46 -12.2 10
16:20 1019 30.09 848 25.04 -2.5 27.5 47 -12.3 9.8
16:25 1019 30.09 848 25.04 -1.9 28.6 46 -12.2 10.1
16:30 1019 30.09 848 25.04 -2.4 27.7 49 -11.8 10.8
16:35 1019 30.09 848 25.04 -2.9 26.8 49 -12.3 9.9
16:40 1019 30.09 848 25.04 -2.9 26.7 50 -11.9 10.6
16:45 1019 30.09 848 25.04 -2.8 26.9 50 -12 10.5
16:50 1019 30.09 848 25.04 -3.1 26.4 50 -12.2 10.1
16:55 1019 30.09 848 25.04 -3.2 26.2 50 -12.3 9.9
17:00 1019 30.09 848 25.04 -3.2 26.3 51 -11.9 10.6
17:05 1019 30.09 848 25.04 -3.2 26.3 51 -12.1 10.3
17:10 1019 30.09 848 25.04 -3.2 26.2 49 -12.4 9.7
17:15 1019 30.09 848 25.04 -3.3 26 50 -12.3 9.8
17:20 1019 30.09 848 25.04 -3.3 26.1 51 -12.2 10.1
17:25 1019 30.09 848 25.04 -3.4 25.8 52 -12.1 10.3
17:30 1019 30.09 848 25.04 -3.7 25.4 51 -12.3 9.8
17:35 1019 30.09 848 25.04 -3.8 25.1 51 -12.4 9.6
17:40 1019 30.09 848 25.04 -4 24.8 52 -12.5 9.6
17:45 1019 30.09 848 25.04 -4 24.8 52 -12.5 9.6
17:50 1019 30.09 848 25.04 -4.2 24.5 52 -12.7 9.2
17:55 1019 30.09 848 25.04 -4.4 24.1 53 -12.6 9.3
18:00 1019 30.09 848 25.04 -4.5 23.9 54 -12.4 9.7
18:05 1019 30.09 848 25.04 -4.5 23.9 54 -12.4 9.6
18:10 1019 30.09 848 25.04 -4.6 23.8 54 -12.5 9.5
18:15 1019 30.09 848 25.04 -4.6 23.7 54 -12.5 9.4
18:20 1019 30.09 848 25.04 -4.7 23.6 55 -12.4 9.7
18:25 1019 30.09 849 25.07 -4.7 23.5 55 -12.4 9.6
18:30 1019 30.09 849 25.07 -4.8 23.4 55 -12.4 9.6
18:35 1019 30.09 849 25.07 -4.8 23.4 56 -12.3 9.8
18:40 1019 30.09 849 25.07 -4.8 23.3 57 -12.1 10.2
18:45 1019 30.09 849 25.07 -4.9 23.1 57 -12.2 10
18:50 1019 30.09 849 25.07 -5.1 22.8 57 -12.3 9.9
18:55 1019 30.09 849 25.07 -5.2 22.7 58 -12.3 9.9
19:00 1019 30.09 849 25.07 -5.3 22.5 59 -12.1 10.2
19:05 1019 30.09 849 25.07 -5.5 22.2 59 -12.3 9.9
19:10 1019 30.09 849 25.07 -5.5 22.2 59 -12.2 10.1
19:15 1019 30.09 849 25.07 -5.4 22.3 59 -12.2 10.1
19:20 1020 30.12 849 25.07 -5.4 22.3 59 -12.1 10.2
19:25 1020 30.12 849 25.07 -5.3 22.4 59 -12.1 10.2
19:30 1020 30.12 849 25.07 -5.2 22.6 60 -11.9 10.6
19:35 1020 30.12 849 25.07 -5.2 22.6 60 -11.9 10.7
19:40 1020 30.12 849 25.07 -5.3 22.5 59 -12 10.3
19:45 1020 30.12 849 25.07 -5.6 21.8 63 -11.6 11.1
19:50 1020 30.12 849 25.07 -5.9 21.4 64 -11.6 11.1
19:55 1020 30.12 849 25.07 -5.9 21.4 63 -11.9 10.5
20:00 1020 30.12 849 25.07 -5.9 21.4 60 -12.4 9.7
20:05 1020 30.12 849 25.07 -5.9 21.4 59 -12.8 9
20:10 1020 30.12 849 25.07 -5.8 21.6 61 -12.2 10
20:15 1020 30.12 849 25.07 -5.8 21.6 61 -12.1 10.1
20:20 1020 30.12 849 25.07 -6.1 21 62 -12.3 9.8
20:25 1020 30.12 849 25.07 -6.3 20.7 63 -12.2 10.1
20:30 1020 30.12 849 25.07 -6.4 20.5 63 -12.3 9.9
20:35 1020 30.12 849 25.07 -6.3 20.7 61 -12.6 9.3
20:40 1020 30.12 849 25.07 -6.1 21 62 -12.2 10
20:45 1020 30.12 849 25.07 -6.1 21.1 60 -12.6 9.3
20:50 1020 30.12 849 25.07 -6 21.2 60 -12.5 9.5
20:55 1020 30.12 849 25.07 -6.1 21.1 59 -12.7 9.1
21:00 1020 30.12 849 25.07 -6.1 21 59 -12.8 9
21:05 1020 30.12 849 25.07 -6 21.1 60 -12.5 9.5
21:10 1020 30.12 849 25.07 -6.1 21 60 -12.6 9.3
21:15 1020 30.12 849 25.07 -6.3 20.6 62 -12.5 9.5
21:20 1020 30.12 849 25.07 -6.5 20.4 61 -12.7 9.1
21:25 1020 30.12 849 25.07 -6.4 20.5 61 -12.7 9.1
21:30 1020 30.12 849 25.07 -6.1 21 60 -12.7 9.2
21:35 1020 30.12 849 25.07 -6.1 21 60 -12.6 9.2
21:40 1020 30.12 849 25.07 -6.1 21.1 61 -12.5 9.5
21:45 1020 30.12 849 25.07 -6.3 20.7 61 -12.5 9.4
21:50 1020 30.12 849 25.07 -6.5 20.2 64 -12.3 9.8
21:55 1020 30.12 849 25.07 -6.8 19.8 65 -12.2 10
22:00 1020 30.12 849 25.07 -6.9 19.6 65 -12.4 9.7
22:05 1020 30.12 849 25.07 -6.7 20 65 -12.2 10.1
22:10 1020 30.12 849 25.07 -6.4 20.5 66 -11.7 10.9
22:15 1020 30.12 849 25.07 -6.3 20.7 66 -11.6 11.1
22:20 1020 30.12 849 25.07 -6.3 20.7 66 -11.6 11.1
22:25 1020 30.12 849 25.07 -6.4 20.5 66 -11.8 10.8
22:30 1020 30.12 849 25.07 -6.4 20.5 66 -11.8 10.7
22:35 1020 30.12 849 25.07 -6.4 20.5 66 -11.8 10.8
22:40 1020 30.12 849 25.07 -6.5 20.4 66 -11.8 10.8
22:45 1020 30.12 849 25.07 -6.7 20 67 -11.7 10.9
22:50 1020 30.12 849 25.07 -6.7 19.9 68 -11.7 10.9
22:55 1020 30.12 849 25.07 -6.7 20 68 -11.6 11.1
23:00 1020 30.12 849 25.07 -6.7 20 68 -11.6 11.2
23:05 1020 30.12 849 25.07 -6.7 19.9 67 -11.9 10.6
23:10 1020 30.12 849 25.07 -6.7 19.9 66 -12.1 10.2
23:15 1020 30.12 849 25.07 -6.7 20 65 -12.1 10.1
23:20 1020 30.12 849 25.07 -6.7 20 65 -12.2 10
23:25 1020 30.12 850 25.1 -6.6 20.1 64 -12.3 9.9
23:30 1020 30.12 850 25.1 -6.5 20.2 65 -12.1 10.2
23:35 1020 30.12 850 25.1 -6.6 20.1 65 -12.2 10.1
23:40 1020 30.12 850 25.1 -6.6 20.1 65 -12.1 10.2
23:45 1020 30.12 850 25.1 -6.7 20 66 -12 10.3
23:50 1020 30.12 850 25.1 -6.6 20.2 66 -11.8 10.7
23:55 1021 30.15 850 25.1 -6.7 19.9 66 -12 10.5
24:00 1021 30.15 850 25.1 -6.8 19.8 67 -12 10.5